This is the latest recevied weather packets stored in our database for station/object OE6ACM-10. If no packets are shown the sender has not sent any weather packets the latest 10 day(s).
| Time | Temp. | Humidity | Pressure | Rain* | Wind** | Luminosity | Snow |
|---|---|---|---|---|---|---|---|
| 1778008029 | 26.11° C | 100% | 918.5 hPa | - | - | - | - |
| 1778007729 | 26.67° C | 100% | 918.4 hPa | - | - | - | - |
| 1778007429 | 26.67° C | 100% | 918.3 hPa | - | - | - | - |
| 1778006856 | 26.67° C | 100% | 918.3 hPa | - | - | - | - |
| 1778006556 | 27.22° C | 100% | 918.2 hPa | - | - | - | - |
| 1778006256 | 27.22° C | 100% | 918.2 hPa | - | - | - | - |
| 1778005956 | 27.22° C | 100% | 918.2 hPa | - | - | - | - |
| 1778005656 | 27.78° C | 100% | 918.1 hPa | - | - | - | - |
| 1778005356 | 27.22° C | 100% | 918 hPa | - | - | - | - |
| 1778005056 | 27.22° C | 100% | 918 hPa | - | - | - | - |
| 1778004756 | 27.78° C | 100% | 917.8 hPa | - | - | - | - |
| 1778004456 | 28.33° C | 100% | 917.9 hPa | - | - | - | - |
| 1778004156 | 28.33° C | 100% | 917.9 hPa | - | - | - | - |
| 1778003856 | 28.33° C | 100% | 917.9 hPa | - | - | - | - |
| 1778003556 | 28.89° C | 100% | 918 hPa | - | - | - | - |
| 1778003256 | 28.89° C | 100% | 918 hPa | - | - | - | - |
| 1778002956 | 29.44° C | 98% | 918 hPa | - | - | - | - |
| 1778002656 | 29.44° C | 100% | 918 hPa | - | - | - | - |
| 1778002356 | 29.44° C | 98% | 918 hPa | - | - | - | - |
| 1778002056 | 30° C | 94% | 918.1 hPa | - | - | - | - |
| 1778001756 | 30° C | 93% | 918 hPa | - | - | - | - |
| 1778001456 | 30.56° C | 90% | 918 hPa | - | - | - | - |
| 1778001156 | 30.56° C | 89% | 918 hPa | - | - | - | - |
| 1778000856 | 30.56° C | 90% | 918 hPa | - | - | - | - |
| 1778000556 | 32.22° C | 81% | 918 hPa | - | - | - | - |
* Rain since midnight (hover to see other rain measurements)
** Current wind speed in m/s (hover to see current wind gust speed)